Data for 01/29/2014

Time Sea-Level Adjusted Pressure Absolute Pressure Temperature Relative Humidity Dew Point   
(mb) (inHg) (mb) (inHg) (C) (F) (%) (C) (F)
00:05 1017 30.03 846 24.98 -0.4 31.2 60 -7.4 18.8
00:10 1017 30.03 846 24.98 -0.8 30.5 62 -7.2 19.1
00:15 1017 30.03 846 24.98 -0.9 30.4 64 -7 19.5
00:20 1017 30.03 846 24.98 -0.9 30.4 65 -6.7 19.9
00:25 1017 30.03 846 24.98 -0.7 30.7 64 -6.6 20.1
00:30 1016 30 846 24.98 -0.6 30.8 65 -6.4 20.6
00:35 1016 30 846 24.98 -0.6 30.9 65 -6.4 20.6
00:40 1016 30 845 24.95 -0.5 31.1 65 -6.3 20.7
00:45 1016 30 845 24.95 -0.5 31.1 65 -6.2 20.8
00:50 1016 30 845 24.95 -0.4 31.3 64 -6.4 20.5
00:55 1016 30 845 24.95 -0 32 64 -6.1 21
01:00 1016 30 845 24.95 0 32.1 63 -6.1 21
01:05 1016 30 845 24.95 -0 31.9 64 -6 21.1
01:10 1016 30 845 24.95 -0 32 63 -6.2 20.8
01:15 1016 30 845 24.95 0.3 32.6 61 -6.3 20.6
01:20 1016 30 845 24.95 0.6 33.1 60 -6.2 20.9
01:25 1016 30 845 24.95 0.7 33.2 60 -6.2 20.9
01:30 1015 29.97 845 24.95 0.7 33.2 60 -6.2 20.8
01:35 1015 29.97 844 24.92 0.7 33.3 60 -6.1 21
01:40 1015 29.97 844 24.92 0.6 33.2 60 -6.2 20.8
01:45 1015 29.97 844 24.92 0.6 33.1 60 -6.3 20.6
01:50 1015 29.97 844 24.92 0.5 33 61 -6.1 20.9
01:55 1015 29.97 844 24.92 0.4 32.7 62 -6.1 21.1
02:00 1015 29.97 844 24.92 0.3 32.5 62 -6.2 20.9
02:05 1015 29.97 844 24.92 0.1 32.2 62 -6.3 20.7
02:10 1015 29.97 844 24.92 0 32.1 62 -6.3 20.6
02:15 1015 29.97 844 24.92 0.1 32.1 62 -6.4 20.5
02:20 1015 29.97 844 24.92 0.1 32.2 60 -6.7 20
02:25 1015 29.97 844 24.92 0.2 32.4 59 -6.8 19.8
02:30 1015 29.97 844 24.92 0.4 32.7 57 -7.1 19.2
02:35 1015 29.97 844 24.92 0.5 32.9 56 -7.3 18.9
02:40 1015 29.97 844 24.92 0.6 33.1 54 -7.6 18.3
02:45 1015 29.97 844 24.92 0.7 33.2 54 -7.5 18.5
02:50 1015 29.97 844 24.92 0.6 33.1 55 -7.5 18.5
02:55 1015 29.97 844 24.92 0.5 32.8 56 -7.4 18.7
03:00 1015 29.97 844 24.92 0.3 32.6 57 -7.3 18.9
03:05 1015 29.97 844 24.92 0.3 32.5 57 -7.2 19
03:10 1015 29.97 844 24.92 0.2 32.3 57 -7.3 18.9
03:15 1015 29.97 844 24.92 0.2 32.3 57 -7.4 18.6
03:20 1015 29.97 844 24.92 0.3 32.5 58 -7.2 19.1
03:25 1015 29.97 844 24.92 0.1 32.2 63 -6.1 21.1
03:30 1015 29.97 844 24.92 -0.3 31.5 65 -6.1 21.1
03:35 1015 29.97 844 24.92 -0.5 31.2 66 -6.1 21.1
03:40 1015 29.97 844 24.92 -0.4 31.2 66 -6.1 21
03:45 1015 29.97 844 24.92 -0.4 31.3 64 -6.3 20.6
03:50 1015 29.97 844 24.92 -0.2 31.6 62 -6.6 20.1
03:55 1015 29.97 844 24.92 -0.2 31.6 63 -6.4 20.5
04:00 1014 29.94 844 24.92 -0.3 31.4 63 -6.6 20.2
04:05 1014 29.94 844 24.92 -0.3 31.5 63 -6.5 20.3
04:10 1014 29.94 843 24.89 -0.3 31.5 63 -6.6 20.2
04:15 1014 29.94 843 24.89 -0.1 31.8 61 -6.8 19.8
04:20 1014 29.94 843 24.89 0 32.1 60 -6.7 19.9
04:25 1014 29.94 843 24.89 0.1 32.1 60 -6.8 19.8
04:30 1014 29.94 843 24.89 0.1 32.3 58 -7.2 19
04:35 1014 29.94 843 24.89 0.3 32.5 57 -7.3 18.8
04:40 1014 29.94 843 24.89 0.4 32.7 57 -7.1 19.1
04:45 1014 29.94 843 24.89 0.3 32.5 56 -7.4 18.7
04:50 1014 29.94 843 24.89 0.3 32.5 57 -7.2 19
04:55 1014 29.94 843 24.89 0.3 32.5 57 -7.2 19.1
05:00 1014 29.94 843 24.89 0.3 32.5 58 -7.1 19.2
05:05 1014 29.94 843 24.89 0.3 32.6 57 -7.2 19.1
05:10 1014 29.94 843 24.89 0.3 32.6 57 -7.2 19.1
05:15 1014 29.94 843 24.89 0.4 32.7 57 -7.2 19
05:20 1013 29.91 843 24.89 0.4 32.8 56 -7.2 19
05:25 1013 29.91 843 24.89 0.5 32.9 56 -7.2 19
05:30 1013 29.91 843 24.89 0.5 33 56 -7.2 19
05:35 1013 29.91 843 24.89 0.6 33.1 56 -7.2 19.1
05:40 1013 29.91 843 24.89 0.5 33 58 -6.8 19.8
05:45 1013 29.91 842 24.86 0.1 32.1 62 -6.3 20.6
05:50 1013 29.91 842 24.86 -0.5 31 63 -6.7 20
05:55 1013 29.91 842 24.86 -0.7 30.8 63 -6.9 19.6
06:00 1013 29.91 842 24.86 -0.7 30.8 64 -6.7 19.9
06:05 1013 29.91 842 24.86 -0.7 30.7 62 -7 19.4
06:10 1013 29.91 842 24.86 -0.5 31.1 62 -7 19.5
06:15 1013 29.91 842 24.86 -0.4 31.4 61 -6.9 19.6
06:20 1013 29.91 842 24.86 -0.4 31.4 62 -6.8 19.8
06:25 1013 29.91 842 24.86 -0.4 31.2 63 -6.7 19.9
06:30 1013 29.91 842 24.86 -0.3 31.5 61 -6.9 19.6
06:35 1013 29.91 842 24.86 -0.2 31.6 61 -6.8 19.7
06:40 1012 29.88 842 24.86 -0.2 31.7 62 -6.6 20.2
06:45 1012 29.88 842 24.86 -0.5 31.2 62 -6.9 19.5
06:50 1012 29.88 841 24.83 -0.2 31.7 60 -7 19.3
06:55 1012 29.88 841 24.83 0.1 32.2 60 -6.8 19.7
07:00 1012 29.88 841 24.83 0.1 32.1 61 -6.5 20.2
07:05 1012 29.88 841 24.83 0.1 32.1 60 -6.9 19.7
07:10 1012 29.88 841 24.83 0.3 32.6 60 -6.5 20.2
07:15 1012 29.88 841 24.83 -0 32 62 -6.5 20.4
07:20 1012 29.88 841 24.83 -0.1 31.7 62 -6.5 20.2
07:25 1012 29.88 841 24.83 0.1 32.1 61 -6.7 20
07:30 1012 29.88 841 24.83 0.1 32.2 61 -6.5 20.2
07:35 1011 29.85 841 24.83 0 32 62 -6.4 20.5
07:40 1011 29.85 841 24.83 -0.1 31.8 63 -6.2 20.8
07:45 1011 29.85 840 24.81 -0 32 64 -6 21.2
07:50 1011 29.85 840 24.81 0.1 32.1 64 -5.9 21.3
07:55 1011 29.85 840 24.81 0.1 32.3 65 -5.6 21.9
08:00 1011 29.85 840 24.81 -0 31.9 66 -5.6 21.9
08:05 1011 29.85 840 24.81 -0 31.9 66 -5.7 21.7
08:10 1010 29.83 840 24.81 0.2 32.3 64 -5.8 21.6
08:15 1010 29.83 839 24.78 0.4 32.7 64 -5.8 21.6
08:20 1010 29.83 839 24.78 0.5 32.8 64 -5.6 21.9
08:25 1010 29.83 839 24.78 0.6 33 65 -5.4 22.4
08:30 1010 29.83 839 24.78 0.5 32.9 67 -4.9 23.1
08:35 1010 29.83 839 24.78 0.6 33.1 71 -4.1 24.6
08:40 1010 29.83 839 24.78 0.6 33.1 76 -3.1 26.5
08:45 1010 29.83 839 24.78 0.6 33.1 78 -2.8 26.9
08:50 1010 29.83 839 24.78 0.7 33.2 78 -2.6 27.3
08:55 1010 29.83 839 24.78 0.8 33.4 80 -2.4 27.7
09:00 1010 29.83 839 24.78 0.8 33.5 80 -2.3 27.9
09:05 1010 29.83 839 24.78 0.9 33.6 80 -2.2 28.1
09:10 1009 29.8 839 24.78 1 33.7 80 -2.1 28.2
09:15 1009 29.8 839 24.78 1 33.8 80 -2 28.3
09:20 1009 29.8 839 24.78 0.9 33.6 81 -2 28.3
09:25 1009 29.8 838 24.75 0.9 33.6 82 -1.9 28.6
09:30 1009 29.8 838 24.75 0.9 33.6 83 -1.8 28.8
09:35 1009 29.8 838 24.75 0.8 33.4 84 -1.6 29.2
09:40 1009 29.8 838 24.75 0.7 33.3 86 -1.4 29.5
09:45 1009 29.8 838 24.75 0.6 33 87 -1.4 29.5
09:50 1009 29.8 838 24.75 0.5 32.9 87 -1.4 29.5
09:55 1008 29.77 838 24.75 0.5 32.8 88 -1.3 29.7
10:00 1008 29.77 838 24.75 0.4 32.8 89 -1.1 30
10:05 1008 29.77 838 24.75 0.4 32.7 90 -1.1 30.1
10:10 1008 29.77 838 24.75 0.4 32.8 90 -1 30.2
10:15 1009 29.8 838 24.75 0.6 33.1 90 -0.9 30.4
10:20 1008 29.77 838 24.75 0.8 33.4 88 -0.9 30.3
10:25 1008 29.77 838 24.75 0.7 33.2 89 -0.9 30.4
10:30 1008 29.77 838 24.75 0.6 33.1 89 -1 30.1
10:35 1008 29.77 837 24.72 0.7 33.2 86 -1.4 29.5
10:40 1008 29.77 837 24.72 0.6 33.1 86 -1.4 29.5
10:45 1008 29.77 837 24.72 0.6 33.1 87 -1.3 29.6
10:50 1008 29.77 837 24.72 0.6 33.1 89 -1.1 30.1
10:55 1008 29.77 837 24.72 0.3 32.6 91 -1 30.2
11:00 1008 29.77 837 24.72 -0 32 92 -1.1 30
11:05 1008 29.77 837 24.72 -0.1 31.8 93 -1.2 29.9
11:10 1007 29.74 837 24.72 -0.1 31.7 93 -1.1 30
11:15 1007 29.74 837 24.72 -0.2 31.7 94 -1.1 30.1
11:20 1007 29.74 837 24.72 -0.1 31.8 94 -0.9 30.3
11:25 1007 29.74 836 24.69 0 32.1 94 -0.8 30.5
11:30 1007 29.74 836 24.69 0.1 32.2 94 -0.8 30.6
11:35 1007 29.74 836 24.69 0.3 32.5 93 -0.7 30.7
11:40 1007 29.74 836 24.69 0.1 32.3 93 -0.8 30.5
11:45 1007 29.74 836 24.69 0.1 32.2 93 -0.9 30.4
11:50 1007 29.74 836 24.69 0.2 32.3 93 -0.8 30.6
11:55 1007 29.74 836 24.69 0.3 32.5 92 -0.9 30.4
12:00 1006 29.71 836 24.69 0.4 32.6 91 -0.9 30.4
12:05 1006 29.71 836 24.69 0.5 32.9 90 -0.9 30.4
12:10 1006 29.71 836 24.69 0.6 33.1 90 -0.8 30.6
12:15 1006 29.71 835 24.66 0.9 33.7 89 -0.7 30.7
12:20 1006 29.71 835 24.66 1 33.8 88 -0.8 30.6
12:25 1006 29.71 835 24.66 1.1 34 86 -1 30.2
12:30 1006 29.71 835 24.66 1 33.8 87 -0.9 30.3
12:35 1006 29.71 835 24.66 1.2 34.1 86 -1 30.2
12:40 1006 29.71 835 24.66 1.3 34.3 84 -1.1 30
12:45 1006 29.71 835 24.66 1.2 34.2 84 -1.2 29.9
12:50 1005 29.68 835 24.66 1.3 34.4 84 -1.1 29.9
12:55 1005 29.68 834 24.63 1.4 34.5 83 -1.2 29.9
13:00 1005 29.68 834 24.63 1.4 34.5 82 -1.4 29.5
13:05 1005 29.68 834 24.63 1.4 34.5 83 -1.2 29.8
13:10 1005 29.68 834 24.63 1.5 34.8 82 -1.3 29.7
13:15 1005 29.68 834 24.63 1.6 34.9 80 -1.5 29.3
13:20 1005 29.68 834 24.63 1.6 34.8 80 -1.4 29.4
13:25 1005 29.68 834 24.63 1.8 35.2 80 -1.3 29.6
13:30 1004 29.65 834 24.63 1.8 35.2 78 -1.6 29.1
13:35 1004 29.65 833 24.6 1.7 35 78 -1.7 29
13:40 1004 29.65 833 24.6 1.7 35 77 -1.9 28.7
13:45 1004 29.65 833 24.6 1.7 35.1 78 -1.8 28.8
13:50 1004 29.65 833 24.6 1.8 35.3 77 -1.7 28.9
13:55 1004 29.65 833 24.6 1.8 35.2 78 -1.7 29
14:00 1004 29.65 833 24.6 1.8 35.3 78 -1.7 29
14:05 1003 29.62 833 24.6 2.1 35.7 76 -1.8 28.7
14:10 1003 29.62 833 24.6 2 35.6 78 -1.4 29.4
14:15 1003 29.62 832 24.57 2.3 36.2 74 -1.8 28.7
14:20 1003 29.62 832 24.57 2.5 36.4 73 -1.9 28.6
14:25 1003 29.62 832 24.57 2.5 36.4 74 -1.7 28.9
14:30 1003 29.62 832 24.57 2.7 36.9 75 -1.4 29.5
14:35 1003 29.62 832 24.57 3 37.5 73 -1.4 29.5
14:40 1002 29.59 832 24.57 3.2 37.7 71 -1.6 29.2
14:45 1002 29.59 832 24.57 3.3 37.9 68 -1.9 28.5
14:50 1002 29.59 832 24.57 3.5 38.2 67 -2.1 28.3
14:55 1002 29.59 831 24.54 3.6 38.4 67 -1.9 28.6
15:00 1002 29.59 831 24.54 3.7 38.6 67 -2 28.5
15:05 1002 29.59 831 24.54 3.7 38.7 66 -2.1 28.2
15:10 1002 29.59 831 24.54 3.8 38.8 66 -2 28.4
15:15 1002 29.59 831 24.54 3.8 38.8 66 -2 28.5
15:20 1002 29.59 831 24.54 3.7 38.7 67 -1.9 28.6
15:25 1002 29.59 831 24.54 3.6 38.5 68 -1.7 28.9
15:30 1002 29.59 831 24.54 3.6 38.4 69 -1.6 29.2
15:35 1002 29.59 831 24.54 3.5 38.3 70 -1.5 29.3
15:40 1002 29.59 831 24.54 3.4 38.1 70 -1.5 29.2
15:45 1002 29.59 831 24.54 3.3 38 71 -1.5 29.4
15:50 1002 29.59 831 24.54 3.3 37.9 71 -1.5 29.3
15:55 1002 29.59 831 24.54 3.3 37.9 72 -1.3 29.6
16:00 1002 29.59 832 24.57 3.2 37.8 72 -1.3 29.7
16:05 1002 29.59 832 24.57 3.3 38 72 -1.2 29.9
16:10 1002 29.59 832 24.57 3.4 38.1 73 -1 30.2
16:15 1002 29.59 832 24.57 3.4 38.2 72 -1.1 29.9
16:20 1003 29.62 832 24.57 3.7 38.6 71 -1.2 29.9
16:25 1003 29.62 832 24.57 3.9 39.1 70 -1 30.2
16:30 1002 29.59 832 24.57 4.1 39.4 68 -1.2 29.8
16:35 1003 29.62 832 24.57 4.4 40 67 -1.2 29.8
16:40 1003 29.62 832 24.57 4.4 40 68 -0.9 30.4
16:45 1003 29.62 832 24.57 4.2 39.5 71 -0.6 30.9
16:50 1003 29.62 832 24.57 4 39.2 70 -0.9 30.3
16:55 1003 29.62 832 24.57 3.9 39.1 71 -0.9 30.3
17:00 1003 29.62 832 24.57 3.8 38.8 71 -1 30.2
17:05 1003 29.62 832 24.57 3.7 38.7 74 -0.6 31
17:10 1003 29.62 832 24.57 3.6 38.4 73 -0.9 30.4
17:15 1003 29.62 832 24.57 3.5 38.2 75 -0.6 30.9
17:20 1003 29.62 832 24.57 3.1 37.6 78 -0.3 31.4
17:25 1003 29.62 832 24.57 2.9 37.2 76 -0.8 30.5
17:30 1003 29.62 832 24.57 3 37.4 75 -1.1 30.1
17:35 1003 29.62 832 24.57 3.1 37.5 74 -1.1 30
17:40 1003 29.62 832 24.57 3 37.5 74 -1.2 29.9
17:45 1003 29.62 832 24.57 3 37.5 78 -0.4 31.2
17:50 1003 29.62 832 24.57 2.5 36.4 81 -0.5 31.2
17:55 1003 29.62 833 24.6 2.2 36 79 -1 30.1
18:00 1003 29.62 833 24.6 2.5 36.4 74 -1.6 29.1
18:05 1003 29.62 833 24.6 2.7 36.8 72 -2 28.5
18:10 1003 29.62 833 24.6 2.8 37 72 -1.8 28.7
18:15 1003 29.62 833 24.6 2.7 36.9 71 -2.1 28.2
18:20 1003 29.62 833 24.6 2.7 36.9 69 -2.3 27.8
18:25 1003 29.62 833 24.6 2.7 36.8 73 -1.8 28.8
18:30 1003 29.62 833 24.6 2.4 36.3 76 -1.4 29.5
18:35 1003 29.62 833 24.6 2.1 35.9 79 -1.2 29.8
18:40 1003 29.62 833 24.6 2 35.6 80 -1 30.1
18:45 1003 29.62 833 24.6 1.9 35.4 81 -1 30.2
18:50 1003 29.62 833 24.6 1.8 35.3 82 -0.9 30.4
18:55 1003 29.62 833 24.6 1.9 35.4 81 -1 30.2
19:00 1004 29.65 833 24.6 1.9 35.4 81 -1.1 30.1
19:05 1003 29.62 833 24.6 1.9 35.5 79 -1.4 29.5
19:10 1003 29.62 833 24.6 2.1 35.8 75 -1.8 28.7
19:15 1003 29.62 833 24.6 2.3 36.1 74 -1.8 28.7
19:20 1004 29.65 833 24.6 2.4 36.3 72 -2.2 28
19:25 1004 29.65 833 24.6 2.5 36.5 72 -2.1 28.3
19:30 1004 29.65 833 24.6 2.5 36.6 71 -2.2 28
19:35 1004 29.65 833 24.6 2.6 36.7 69 -2.5 27.4
19:40 1004 29.65 833 24.6 2.7 36.8 65 -3.2 26.2
19:45 1004 29.65 833 24.6 2.7 36.8 65 -3.3 26
19:50 1004 29.65 833 24.6 2.7 36.9 65 -3.2 26.2
19:55 1003 29.62 833 24.6 2.6 36.7 65 -3.2 26.2
20:00 1003 29.62 833 24.6 2.6 36.6 65 -3.4 26
20:05 1003 29.62 832 24.57 2.6 36.6 65 -3.4 25.9
20:10 1003 29.62 832 24.57 2.5 36.5 66 -3.2 26.3
20:15 1003 29.62 833 24.6 2.4 36.3 73 -2 28.4
20:20 1003 29.62 833 24.6 2.1 35.8 73 -2.2 28.1
20:25 1003 29.62 832 24.57 1.9 35.5 73 -2.5 27.5
20:30 1003 29.62 832 24.57 1.9 35.4 73 -2.5 27.5
20:35 1003 29.62 832 24.57 1.9 35.4 72 -2.6 27.4
20:40 1003 29.62 832 24.57 1.9 35.4 72 -2.6 27.3
20:45 1003 29.62 832 24.57 1.9 35.5 69 -3.2 26.2
20:50 1003 29.62 832 24.57 2.1 35.7 68 -3.3 26.1
20:55 1003 29.62 832 24.57 2.1 35.8 69 -2.9 26.7
21:00 1003 29.62 832 24.57 2 35.5 71 -2.8 26.9
21:05 1003 29.62 832 24.57 1.9 35.5 70 -3 26.5
21:10 1003 29.62 832 24.57 2 35.6 69 -3.1 26.4
21:15 1003 29.62 832 24.57 2 35.6 68 -3.4 25.9
21:20 1003 29.62 833 24.6 2 35.6 66 -3.7 25.3
21:25 1003 29.62 833 24.6 2 35.6 61 -4.7 23.6
21:30 1003 29.62 832 24.57 2.1 35.8 61 -4.6 23.8
21:35 1003 29.62 832 24.57 2 35.7 60 -4.9 23.2
21:40 1003 29.62 832 24.57 2 35.5 59 -5.1 22.8
21:45 1003 29.62 832 24.57 1.9 35.4 58 -5.5 22
21:50 1003 29.62 832 24.57 1.9 35.4 57 -5.6 21.9
21:55 1003 29.62 833 24.6 1.9 35.4 57 -5.8 21.5
22:00 1003 29.62 833 24.6 1.9 35.4 56 -5.9 21.4
22:05 1003 29.62 833 24.6 1.9 35.4 56 -6.1 21.1
22:10 1004 29.65 833 24.6 1.8 35.3 57 -5.8 21.5
22:15 1004 29.65 833 24.6 1.7 35.1 57 -5.9 21.4
22:20 1004 29.65 833 24.6 1.6 34.9 56 -6.1 21
22:25 1004 29.65 833 24.6 1.5 34.8 57 -6.1 21
22:30 1004 29.65 833 24.6 1.5 34.7 57 -6.1 20.9
22:35 1004 29.65 833 24.6 1.3 34.4 58 -6.1 21
22:40 1004 29.65 833 24.6 1.2 34.1 59 -5.9 21.4
22:45 1004 29.65 833 24.6 1 33.9 57 -6.4 20.4
22:50 1004 29.65 833 24.6 1.1 34 57 -6.5 20.3
22:55 1004 29.65 833 24.6 1.2 34.2 56 -6.6 20.1
23:00 1004 29.65 833 24.6 1.2 34.2 55 -6.9 19.6
23:05 1004 29.65 833 24.6 1.2 34.2 54 -7.1 19.3
23:10 1004 29.65 833 24.6 1.2 34.1 55 -6.8 19.7
23:15 1004 29.65 833 24.6 1 33.8 54 -7.2 19
23:20 1004 29.65 833 24.6 1 33.9 54 -7.2 19
23:25 1004 29.65 833 24.6 0.9 33.7 54 -7.4 18.8
23:30 1004 29.65 833 24.6 0.9 33.6 53 -7.6 18.4
23:35 1004 29.65 833 24.6 0.9 33.6 52 -7.8 18
23:40 1004 29.65 833 24.6 0.9 33.7 53 -7.5 18.4
23:45 1004 29.65 833 24.6 0.9 33.6 52 -7.9 17.8
23:50 1004 29.65 833 24.6 0.9 33.7 58 -6.4 20.5
23:55 1004 29.65 833 24.6 0.7 33.2 59 -6.5 20.4
24:00 1004 29.65 833 24.6 0.5 32.9 58 -6.7 19.9